Tiempo atmosférico en la estación meteorológica de Vega de San Mateo, Las Palmas (1702 m.)



Fecha
DESCASC
Temp. máxima en grados centígrados (hora)
DESCASC
Temp. mínima en grados centígrados (hora)
DESCASC
Temp. media en grados centígrados
DESCASC
Racha de viento máxima en m/sg (hora)
DESCASC
Velocidad máxima media en intervalos de 10 minutos(hora)
DESCASC
Precipitaciones diarias en mm
DESCASC
Precipitaciones de 00:00 a 06:00 en mm
DESCASC
Precipitaciones de 06:00 a 12:00 en mm
DESCASC
Precipitaciones de 12:00 a 18:00 en mm
DESCASC
Precipitaciones de 18:00 a 24:00 en mm
DESCASC
15-08-2019 30.7 (17:20) 16.2 (03:30) 23.5 10.28 (15:20) 5 (15:40) 0 0 0 0 0
14-08-2019 24.4 (14:50) 14.4 (00:00) 19.4 6.39 (16:50) 3.33 (15:40) 0 0 0 0 0
13-08-2019 22.4 (16:30) 15.2 (00:00) 18.8 10.83 (00:50) 5.83 (01:50) 0 0 0 0 0
12-08-2019 21.4 (16:00) 13.8 (00:00) 17.6 13.06 (02:30) 6.39 (16:20) 0 0 0 0 0
11-08-2019 -- (--) -- (--) -- -- (--) -- (--) -- 0 0 -- 0
10-08-2019 28.2 (13:00) 18.6 (00:00) 23.4 7.5 (23:30) 3.89 (23:30) 0 0 0 0 0
09-08-2019 28.3 (12:40) 21 (00:00) 24.6 8.61 (04:50) 5.28 (15:40) 0 0 0 0 0
08-08-2019 30.1 (13:30) 22.4 (00:00) 26.3 8.06 (22:30) 4.72 (23:59) 0 0 0 0 0
07-08-2019 28.8 (11:20) 14.4 (00:00) 21.6 6.39 (01:10) 3.89 (01:10) 0 0 0 0 0
06-08-2019 24 (18:20) 11 (00:00) 17.5 11.11 (02:00) 5.83 (00:30) 0 0 0 0 0
05-08-2019 18.3 (09:40) 11.9 (00:00) 15.1 11.67 (14:40) 6.11 (14:00) 0 0 0 0 0
04-08-2019 22.3 (14:30) 11.3 (00:00) 16.8 6.11 (23:59) 3.06 (00:20) 0 0 0 0 0
03-08-2019 24 (14:30) 13.3 (00:00) 18.7 6.94 (11:00) 3.61 (09:40) 0 0 0 0 0
02-08-2019 24.3 (16:00) 13.2 (00:00) 18.7 6.11 (21:30) 3.89 (20:10) 0 0 0 0 0
01-08-2019 23.7 (16:40) 13.5 (00:00) 18.6 8.33 (00:10) 4.17 (00:20) 0 0 0 0 0
31-07-2019 20.8 (15:20) 10.9 (00:00) 15.8 10.28 (01:20) 5.83 (00:40) 0 0 0 0 0
30-07-2019 21.1 (15:40) 8.7 (00:00) 14.9 13.33 (02:30) 6.39 (00:50) 0.2 0 0.2 0 0
29-07-2019 21.1 (16:10) 10 (00:00) 15.6 11.94 (22:50) 6.11 (23:30) 0 0 0 0 0
28-07-2019 24.4 (18:10) 15.4 (00:00) 19.9 8.61 (06:20) 4.72 (10:20) 0 0 0 0 0
27-07-2019 -- (--) -- (--) -- -- (--) -- (--) -- 0 0 -- 0
26-07-2019 31.7 (12:10) 17 (00:00) 24.4 6.11 (12:00) 3.61 (07:20) 0 0 0 0 0
25-07-2019 30.5 (16:50) 16.9 (00:00) 23.7 8.33 (15:40) 4.44 (16:10) 0 0 0 0 0
24-07-2019 28.3 (16:40) 15.8 (00:00) 22 6.94 (13:20) 3.61 (01:30) 0 0 0 0 0
23-07-2019 23.3 (13:50) 15.6 (00:00) 19.4 8.89 (15:20) 4.72 (17:10) 0 0 0 0 0
22-07-2019 -- (--) -- (--) -- -- (--) -- (--) -- 0 -- -- 0
21-07-2019 27 (11:10) 14.9 (00:00) 20.9 5.83 (14:30) 3.06 (14:40) 0 0 0 0 0
20-07-2019 26 (18:50) 12.5 (00:00) 19.3 10.28 (00:40) 5.28 (00:10) 0 0 0 0 0
19-07-2019 20.7 (14:40) 12.4 (00:00) 16.6 10.83 (23:50) 5.56 (23:30) 0 0 0 0 0
18-07-2019 24.9 (13:50) 14.4 (00:00) 19.6 8.33 (23:40) 4.17 (23:30) 0 0 0 0 0

Gráficas

Temp. máximas Temp. mínimas Temp. medias Precipitaciones Rachas de viento máximas Velocidades máximas media en intervalos de 10 minutos

Datos horarios

Fecha y hora oficial Temperatura (ºC) Velocidad del viento (km/h) Dirección del viento Racha (km/h) Dirección de racha Precipitación (mm) Presión (hPa) Tendencia (hPa) Humedad (%)
2019-08-16 23:00:00 24.9 12 Este 22 Este 0 -- -- 19
2019-08-16 22:00:00 26 11 Este 22 Este 0 -- -- 19
2019-08-16 21:00:00 26.3 9 Este 22 Este 0 -- -- 20
2019-08-16 20:00:00 27.4 9 Este 23 Nordeste 0 -- -- 21
2019-08-16 19:00:00 29.2 11 Este 25 Este 0 -- -- 20
2019-08-16 18:00:00 30.7 12 Este 30 Este 0 -- -- 19
2019-08-16 17:00:00 30.5 13 Este 23 Este 0 -- -- 19
2019-08-16 16:00:00 30.5 14 Este 30 Este 0 -- -- 22
2019-08-16 15:00:00 32.3 13 Este 34 Este 0 -- -- 18
2019-08-16 14:00:00 32.4 13 Este 36 Nordeste 0 -- -- 17
2019-08-16 13:00:00 31.3 15 Este 35 Este 0 -- -- 18
2019-08-16 12:00:00 30.9 12 Este 31 Este 0 -- -- 19
2019-08-16 11:00:00 30.3 13 Este 25 Este 0 -- -- 18
2019-08-16 10:00:00 29.3 13 Este 28 Este 0 -- -- 19
2019-08-16 09:00:00 27 13 Este 30 Este 0 -- -- 18
2019-08-16 08:00:00 24.6 14 Este 26 Este 0 -- -- 16
2019-08-16 07:00:00 23.5 12 Este 22 Este 0 -- -- 17
2019-08-16 06:00:00 24.4 10 Este 18 Este 0 -- -- 14
2019-08-16 05:00:00 23 7 Este 14 Este 0 -- -- 14
2019-08-16 04:00:00 23.2 8 Este 16 Nordeste 0 -- -- 14
2019-08-16 03:00:00 23 10 Nordeste 17 Nordeste 0 -- -- 14
2019-08-16 02:00:00 24.6 6 Este 9 Este 0 -- -- 17
2019-08-16 01:00:00 25 5 Este 13 Sudeste 0 -- -- 16
2019-08-16 00:00:00 26 7 Sudeste 12 Sudeste 0 -- -- 14
2019-08-15 23:00:00 25.8 8 Sudeste 15 Sudeste 0 -- -- 13
2019-08-15 22:00:00 26.3 10 Sudeste 19 Sudeste 0 -- -- 13
2019-08-15 21:00:00 26.5 11 Sudeste 22 Sudeste 0 -- -- 13
2019-08-15 20:00:00 28.1 13 Sudeste 27 Sudeste 0 -- -- 12
2019-08-15 19:00:00 29.3 12 Sudeste 28 Sudeste 0 -- -- 11
2019-08-15 18:00:00 30 15 Sudeste 30 Sudeste 0 -- -- 13
2019-08-15 17:00:00 30.4 12 Sudeste 34 Sudeste 0 -- -- 13
2019-08-15 16:00:00 30.1 14 Sudeste 37 Sudeste 0 -- -- 11
2019-08-15 15:00:00 30.2 14 Sudeste 31 Sudeste 0 -- -- 13
2019-08-15 14:00:00 29.6 17 Sudeste 27 Sur 0 -- -- 11
2019-08-15 13:00:00 29.6 6 Sudeste 16 Sudeste 0 -- -- 13
2019-08-15 12:00:00 28.4 5 Nordeste 18 Nordeste 0 -- -- 21
2019-08-15 11:00:00 26.7 9 Nordeste 17 Este 0 -- -- 19
2019-08-15 10:00:00 25.7 9 Nordeste 15 Este 0 -- -- 17
2019-08-15 09:00:00 23.5 3 Este 6 Este 0 -- -- 18
2019-08-15 08:00:00 19.2 2 Nordeste 6 Nordeste 0 -- -- 13
2019-08-15 07:00:00 18.3 0 Calma 4 Sudeste 0 -- -- 12
2019-08-15 06:00:00 18 0 Calma 7 Este 0 -- -- 12
2019-08-15 05:00:00 17.7 0 Calma 7 Este 0 -- -- 13
2019-08-15 04:00:00 16.9 2 Este 3 Nordeste 0 -- -- 19
2019-08-15 03:00:00 16.9 0 Calma 3 Sudeste 0 -- -- 21
2019-08-15 02:00:00 17.2 0 Calma 0 Calma 0 -- -- 21
2019-08-15 01:00:00 17.5 0 Calma 4 Nordeste 0 -- -- 22
2019-08-15 00:00:00 18.2 3 Este 6 Sudeste 0 -- -- 20
2019-08-14 23:00:00 17.6 0 Calma 6 Nordeste 0 -- -- 23
2019-08-14 22:00:00 17.4 0 Calma 4 Nordeste 0 -- -- 25
2019-08-14 21:00:00 18.2 2 Nordeste 11 Este 0 -- -- 27
2019-08-14 20:00:00 21.8 7 Nordeste 16 Nordeste 0 -- -- 21
2019-08-14 19:00:00 22.1 9 Nordeste 19 Este 0 -- -- 26
2019-08-14 18:00:00 22.5 9 Nordeste 21 Este 0 -- -- 29
2019-08-14 17:00:00 23.2 10 Nordeste 23 Nordeste 0 -- -- 27
2019-08-14 16:00:00 23.9 9 Nordeste 21 Nordeste 0 -- -- 30
2019-08-14 15:00:00 23.5 10 Nordeste 19 Este 0 -- -- 26
2019-08-14 14:00:00 23.5 9 Nordeste 21 Nordeste 0 -- -- 23
2019-08-14 13:00:00 23.1 11 Nordeste 22 Nordeste 0 -- -- 17
2019-08-14 12:00:00 23 9 Nordeste 19 Nordeste 0 -- -- 14
2019-08-14 11:00:00 21.8 11 Nordeste 22 Este 0 -- -- 13
2019-08-14 10:00:00 21.4 10 Nordeste 18 Nordeste 0 -- -- 10
2019-08-14 09:00:00 19.6 7 Este 13 Nordeste 0 -- -- 20
2019-08-14 08:00:00 15.9 5 Nordeste 8 Nordeste 0 -- -- 42
2019-08-14 07:00:00 15.2 3 Norte 4 Nordeste 0 -- -- 45
2019-08-14 06:00:00 15.8 2 Norte 14 Nordeste 0 -- -- 43
2019-08-14 05:00:00 14.8 7 Nordeste 11 Este 0 -- -- 6
2019-08-14 04:00:00 14.4 5 Nordeste 9 Nordeste 0 -- -- 5
2019-08-14 03:00:00 15.6 4 Nordeste 7 Nordeste 0 -- -- 20
2019-08-14 02:00:00 16.3 3 Este 10 Nordeste 0 -- -- 10
2019-08-14 01:00:00 15.9 6 Este 12 Este 0 -- -- 10
2019-08-14 00:00:00 16.4 7 Este 13 Nordeste 0 -- -- 10
2019-08-13 23:00:00 16 8 Este 20 Este 0 -- -- 11
2019-08-13 22:00:00 17.1 11 Este 22 Nordeste 0 -- -- 11
2019-08-13 21:00:00 17 12 Este 25 Este 0 -- -- 11
2019-08-13 20:00:00 19.3 9 Este 24 Este 0 -- -- 11
2019-08-13 19:00:00 20.1 10 Este 26 Este 0 -- -- 19
2019-08-13 18:00:00 20.4 12 Este 25 Este 0 -- -- 17
2019-08-13 17:00:00 21.6 10 Este 26 Nordeste 0 -- -- 30
2019-08-13 16:00:00 21.9 9 Nordeste 23 Este 0 -- -- 34
2019-08-13 15:00:00 21.7 7 Este 26 Este 0 -- -- 35
2019-08-13 14:00:00 21.4 14 Este 26 Este 0 -- -- 39
2019-08-13 13:00:00 21 15 Este 29 Este 0 -- -- 40
2019-08-13 12:00:00 20.6 17 Este 32 Este 0 -- -- 35
2019-08-13 11:00:00 20 17 Este 33 Este 0 -- -- 21
2019-08-13 10:00:00 19.3 16 Este 34 Nordeste 0 -- -- 19
2019-08-13 09:00:00 18.4 17 Este 32 Este 0 -- -- 12
2019-08-13 08:00:00 16.6 17 Este 30 Este 0 -- -- 11
2019-08-13 07:00:00 16.2 18 Este 31 Este 0 -- -- 11
2019-08-13 06:00:00 16.1 18 Este 31 Este 0 -- -- 12
2019-08-13 05:00:00 15.8 18 Este 34 Este 0 -- -- 14
2019-08-13 04:00:00 15.8 18 Este 33 Este 0 -- -- 13
2019-08-13 03:00:00 15.5 19 Este 34 Este 0 -- -- 13
2019-08-13 02:00:00 15.9 20 Este 37 Este 0 -- -- 18
2019-08-13 01:00:00 15.7 20 Este 39 Este 0 -- -- 11
2019-08-13 00:00:00 16.4 19 Este 35 Nordeste 0 -- -- 12
2019-08-12 23:00:00 16.2 17 Este 34 Este 0 -- -- 13
2019-08-12 22:00:00 16.2 18 Este 35 Este 0 -- -- 12
2019-08-12 21:00:00 16.2 17 Este 39 Este 0 -- -- 14
2019-08-12 20:00:00 17.5 19 Este 36 Este 0 -- -- 13
2019-08-12 19:00:00 18.4 19 Este 36 Este 0 -- -- 13
2019-08-12 18:00:00 18.9 22 Este 39 Este 0 -- -- 12
2019-08-12 17:00:00 20.2 21 Este 41 Este 0 -- -- 14
2019-08-12 16:00:00 21.4 19 Este 44 Este 0 -- -- 12
2019-08-12 15:00:00 20.5 18 Este 38 Este 0 -- -- 15
2019-08-12 14:00:00 20 21 Este 41 Este 0 -- -- 12
2019-08-12 13:00:00 19.5 19 Este 35 Este 0 -- -- 29
2019-08-12 12:00:00 19.6 18 Este 32 Nordeste 0 -- -- 25
2019-08-12 11:00:00 18.2 17 Este 33 Este 0 -- -- 40
2019-08-12 10:00:00 16.9 19 Este 33 Sudeste 0 -- -- 40
2019-08-12 09:00:00 15.3 18 Este 31 Este 0 -- -- 44
2019-08-12 08:00:00 14.1 17 Este 32 Este 0 -- -- 50
2019-08-12 07:00:00 14.6 18 Este 36 Este 0 -- -- 44
2019-08-12 06:00:00 14.1 19 Este 36 Nordeste 0 -- -- 43
2019-08-12 05:00:00 14 20 Este 37 Este 0 -- -- 39
2019-08-12 04:00:00 14.8 20 Este 41 Este 0 -- -- 31
2019-08-12 03:00:00 15 22 Este 47 Este 0 -- -- 28
2019-08-12 02:00:00 15.2 20 Este 37 Este 0 -- -- 23
2019-08-12 01:00:00 14.6 19 Este 31 Este 0 -- -- 23
2019-08-12 00:00:00 14.2 17 Este 32 Este 0 -- -- 28
2019-08-11 23:00:00 14.2 17 Este 40 Este 0 -- -- 26
2019-08-11 22:00:00 16.2 16 Este 31 Este 0 -- -- 15
2019-08-11 21:00:00 16.6 13 Este 28 Nordeste 0 -- -- 19
2019-08-11 20:00:00 19.5 10 Este 22 Este 0 -- -- 19
2019-08-11 19:00:00 21.3 9 Nordeste 22 Nordeste 0 -- -- 19
2019-08-11 18:00:00 24.5 8 Nordeste 17 Nordeste 0 -- -- 24
2019-08-11 17:00:00 24.6 8 Nordeste 16 Este 0 -- -- 37
2019-08-11 16:00:00 26.9 7 Norte 21 Nordeste 0 -- -- 29
2019-08-11 15:00:00 25.5 9 Este 25 Sudeste 0 -- -- 28
2019-08-11 14:00:00 -- -- -- -- -- -- -- -- --
2019-08-11 13:00:00 24.9 9 Este 25 Este 0 -- -- 26
2019-08-11 12:00:00 24.5 7 Este 24 Este 0 -- -- 30
2019-08-11 11:00:00 22 13 Este 25 Este 0 -- -- 39
2019-08-11 10:00:00 19.6 15 Este 26 Este 0 -- -- 37
2019-08-11 09:00:00 19.4 10 Este 25 Nordeste 0 -- -- 33
2019-08-11 08:00:00 17.6 14 Este 22 Este 0 -- -- 35
2019-08-11 07:00:00 17.8 12 Nordeste 21 Nordeste 0 -- -- 32
2019-08-11 06:00:00 18 10 Este 19 Este 0 -- -- 33
2019-08-11 05:00:00 17.6 9 Este 21 Nordeste 0 -- -- 38
2019-08-11 04:00:00 17.9 9 Este 21 Este 0 -- -- 38
2019-08-11 03:00:00 17.3 13 Este 27 Este 0 -- -- 40
2019-08-11 02:00:00 17 15 Este 27 Este 0 -- -- 45
2019-08-11 01:00:00 17.3 12 Este 23 Este 0 -- -- 46
2019-08-11 00:00:00 18.6 10 Este 27 Este 0 -- -- 34
2019-08-10 23:00:00 20.2 13 Este 24 Este 0 -- -- 14
2019-08-10 22:00:00 21 10 Este 23 Este 0 -- -- 8
2019-08-10 21:00:00 22 8 Este 19 Este 0 -- -- 6
2019-08-10 20:00:00 23.6 6 Este 17 Noroeste 0 -- -- 8
2019-08-10 19:00:00 25.4 8 Sudeste 22 Noroeste 0 -- -- 17
2019-08-10 18:00:00 27.4 7 Noroeste 21 Norte 0 -- -- 20
2019-08-10 17:00:00 26.3 9 Este 22 Noroeste 0 -- -- 18
2019-08-10 16:00:00 27.2 10 Norte 19 Noroeste 0 -- -- 26
2019-08-10 15:00:00 27.6 8 Noroeste 21 Noroeste 0 -- -- 20
2019-08-10 14:00:00 27 12 Norte 24 Noroeste 0 -- -- 19
2019-08-10 13:00:00 28.2 7 Noroeste 24 Norte 0 -- -- 15
2019-08-10 12:00:00 27.9 8 Noroeste 21 Oeste 0 -- -- 12
2019-08-10 11:00:00 26.3 9 Este 21 Este 0 -- -- 12
2019-08-10 10:00:00 26.6 5 Este 22 Norte 0 -- -- 6
2019-08-10 09:00:00 24.5 7 Este 14 Este 0 -- -- 6
2019-08-10 08:00:00 20.2 4 Sudeste 15 Este 0 -- -- 6
2019-08-10 07:00:00 21 5 Este 12 Este 0 -- -- 9
2019-08-10 06:00:00 21.8 5 Este 12 Este 0 -- -- 11
2019-08-10 05:00:00 21.6 5 Este 9 Este 0 -- -- 10
2019-08-10 04:00:00 22.1 5 Este 15 Nordeste 0 -- -- 8
2019-08-10 03:00:00 22.2 8 Este 13 Sudeste 0 -- -- 8
2019-08-10 02:00:00 22.6 7 Este 14 Este 0 -- -- 7
2019-08-10 01:00:00 22.4 5 Este 15 Este 0 -- -- 7
2019-08-10 00:00:00 22.4 8 Este 13 Este 0 -- -- 13
2019-08-09 23:00:00 21.9 5 Este 9 Nordeste 0 -- -- 21
2019-08-09 22:00:00 22.5 5 Este 13 Este 0 -- -- 22
2019-08-09 21:00:00 22.2 2 Sudeste 10 Norte 0 -- -- 25
2019-08-09 20:00:00 26 5 Norte 13 Oeste 0 -- -- 20
2019-08-09 19:00:00 28.2 6 Oeste 18 Oeste 0 -- -- 24
2019-08-09 18:00:00 28.2 12 Oeste 24 Oeste 0 -- -- 24
2019-08-09 17:00:00 27.8 14 Oeste 28 Oeste 0 -- -- 31
2019-08-09 16:00:00 27.7 18 Oeste 30 Oeste 0 -- -- 33
2019-08-09 15:00:00 27.5 17 Oeste 28 Oeste 0 -- -- 33
2019-08-09 14:00:00 28 15 Oeste 26 Oeste 0 -- -- 32
2019-08-09 13:00:00 27.9 14 Oeste 22 Oeste 0 -- -- 28
2019-08-09 12:00:00 28 12 Oeste 20 Oeste 0 -- -- 26
2019-08-09 11:00:00 27.4 12 Oeste 21 Oeste 0 -- -- 31
2019-08-09 10:00:00 25.5 13 Oeste 24 Oeste 0 -- -- 33
2019-08-09 09:00:00 24.2 10 Oeste 23 Oeste 0 -- -- 32
2019-08-09 08:00:00 22.5 14 Oeste 27 Oeste 0 -- -- 37
2019-08-09 07:00:00 22.3 16 Oeste 27 Oeste 0 -- -- 34
2019-08-09 06:00:00 22.5 16 Oeste 28 Oeste 0 -- -- 34
2019-08-09 05:00:00 22.6 17 Oeste 31 Oeste 0 -- -- 31
2019-08-09 04:00:00 22.5 17 Oeste 27 Oeste 0 -- -- 30
2019-08-09 03:00:00 22.7 17 Oeste 27 Sudoeste 0 -- -- 30
2019-08-09 02:00:00 22.5 10 Sudoeste 27 Oeste 0 -- -- 29
2019-08-09 01:00:00 22.8 14 Oeste 29 Oeste 0 -- -- 32
2019-08-09 00:00:00 23 17 Oeste 28 Oeste 0 -- -- 31
2019-08-08 23:00:00 23.1 15 Oeste 29 Oeste 0 -- -- 32
2019-08-08 22:00:00 23.1 13 Oeste 23 Noroeste 0 -- -- 31
2019-08-08 21:00:00 23.3 12 Sudoeste 26 Oeste 0 -- -- 31
2019-08-08 20:00:00 24.8 10 Sudoeste 23 Oeste 0 -- -- 30
2019-08-08 19:00:00 27.6 12 Oeste 28 Sudoeste 0 -- -- 27
2019-08-08 18:00:00 28.7 13 Sudoeste 27 Sudoeste 0 -- -- 24
2019-08-08 17:00:00 28.9 13 Oeste 27 Oeste 0 -- -- 24
2019-08-08 16:00:00 29.7 12 Oeste 26 Oeste 0 -- -- 22
2019-08-08 15:00:00 29.3 12 Oeste 24 Oeste 0 -- -- 21
2019-08-08 14:00:00 29.1 14 Oeste 27 Sudoeste 0 -- -- 20
2019-08-08 13:00:00 29.1 13 Sudoeste 24 Sur 0 -- -- 15
2019-08-08 12:00:00 28.6 9 Oeste 21 Noroeste 0 -- -- 13
2019-08-08 11:00:00 28.2 10 Sudoeste 23 Sudoeste 0 -- -- 12
2019-08-08 10:00:00 27.5 9 Oeste 19 Sudoeste 0 -- -- 12
2019-08-08 09:00:00 25.1 11 Sudoeste 22 Oeste 0 -- -- 12
2019-08-08 08:00:00 23.4 8 Sudoeste 17 Sudoeste 0 -- -- 13
2019-08-08 07:00:00 22.6 6 Sudoeste 16 Sudoeste 0 -- -- 13
2019-08-08 06:00:00 23.3 7 Sudoeste 19 Sudoeste 0 -- -- 13
2019-08-08 05:00:00 23.6 10 Sudoeste 19 Sudoeste 0 -- -- 13
2019-08-08 04:00:00 23.4 10 Sudoeste 19 Sudoeste 0 -- -- 13
2019-08-08 03:00:00 23.3 12 Sudoeste 22 Sudoeste 0 -- -- 13
2019-08-08 02:00:00 23.1 9 Sudoeste 22 Sudoeste 0 -- -- 11
2019-08-08 01:00:00 22.7 6 Sudoeste 15 Sudoeste 0 -- -- 11
2019-08-08 00:00:00 22.8 5 Sur 15 Sur 0 -- -- 10
2019-08-07 23:00:00 22.9 5 Sur 13 Sur 0 -- -- 10
2019-08-07 22:00:00 23.3 5 Sur 17 Sur 0 -- -- 8
2019-08-07 21:00:00 23.8 9 Sur 19 Sur 0 -- -- 7
2019-08-07 20:00:00 26.3 8 Sur 18 Sur 0 -- -- 9
2019-08-07 19:00:00 28.5 7 Sudoeste 18 Oeste 0 -- -- 20
2019-08-07 18:00:00 28.2 7 Oeste 17 Oeste 0 -- -- 33
2019-08-07 17:00:00 26.6 10 Oeste 20 Oeste 0 -- -- 36
2019-08-07 16:00:00 27.5 9 Oeste 19 Oeste 0 -- -- 28
2019-08-07 15:00:00 27.6 10 Oeste 18 Noroeste 0 -- -- 27
2019-08-07 14:00:00 28.7 6 Oeste 18 Sur 0 -- -- 17
2019-08-07 13:00:00 27 4 Sudoeste 17 Sudeste 0 -- -- 22
2019-08-07 12:00:00 27.8 5 Oeste 19 Sur 0 -- -- 10
2019-08-07 11:00:00 27.9 9 Sudeste 19 Sudeste 0 -- -- 6
2019-08-07 10:00:00 26.4 9 Sudeste 21 Sur 0 -- -- 4
2019-08-07 09:00:00 22.5 5 Oeste 15 Sudeste 0 -- -- 7
2019-08-07 08:00:00 19.4 6 Este 18 Este 0 -- -- 5
2019-08-07 07:00:00 17.3 6 Nordeste 12 Nordeste 0 -- -- 7
2019-08-07 06:00:00 16.8 7 Nordeste 15 Este 0 -- -- 9
2019-08-07 05:00:00 16.9 8 Nordeste 13 Nordeste 0 -- -- 14
2019-08-07 04:00:00 17.8 4 Este 12 Nordeste 0 -- -- 6
2019-08-07 03:00:00 17.3 6 Nordeste 13 Nordeste 0 -- -- 8
2019-08-07 02:00:00 15 7 Nordeste 23 Nordeste 0 -- -- 18
2019-08-07 01:00:00 15.7 11 Este 19 Nordeste 0 -- -- 20
2019-08-07 00:00:00 14.9 12 Nordeste 19 Este 0 -- -- 22
2019-08-06 23:00:00 16.7 9 Nordeste 21 Nordeste 0 -- -- 17
2019-08-06 22:00:00 16.8 7 Nordeste 14 Este 0 -- -- 17
2019-08-06 21:00:00 18.3 8 Nordeste 12 Nordeste 0 -- -- 15
2019-08-06 20:00:00 23.4 2 Norte 14 Oeste 0 -- -- 32
2019-08-06 19:00:00 23.4 6 Oeste 12 Oeste 0 -- -- 41
2019-08-06 18:00:00 22.7 5 Nordeste 15 Nordeste 0 -- -- 37
2019-08-06 17:00:00 22.7 5 Nordeste 18 Este 0 -- -- 43
2019-08-06 16:00:00 22.8 6 Nordeste 20 Este 0 -- -- 33
2019-08-06 15:00:00 21.9 10 Nordeste 23 Nordeste 0 -- -- 29
2019-08-06 14:00:00 21.8 10 Nordeste 26 Este 0 -- -- 23
2019-08-06 13:00:00 21.1 12 Este 27 Nordeste 0 -- -- 22
2019-08-06 12:00:00 20.4 14 Nordeste 31 Nordeste 0 -- -- 20
2019-08-06 11:00:00 19.3 15 Este 33 Este 0 -- -- 22
2019-08-06 10:00:00 18.1 16 Este 33 Nordeste 0 -- -- 21
2019-08-06 09:00:00 16.5 14 Este 27 Nordeste 0 -- -- 27
2019-08-06 08:00:00 14.5 13 Este 27 Nordeste 0 -- -- 29
2019-08-06 07:00:00 13.3 11 Este 26 Este 0 -- -- 36
2019-08-06 06:00:00 12.7 15 Este 26 Este 0 -- -- 48
2019-08-06 05:00:00 12.3 14 Este 39 Este 0 -- -- 53
2019-08-06 04:00:00 12.3 15 Este 35 Nordeste 0 -- -- 55
2019-08-06 03:00:00 12.4 17 Este 37 Este 0 -- -- 56
2019-08-06 02:00:00 11.2 19 Este 40 Nordeste 0 -- -- 69
2019-08-06 01:00:00 11.4 19 Este 38 Este 0 -- -- 72
2019-08-06 00:00:00 11.9 21 Este 37 Este 0 -- -- 67
2019-08-05 23:00:00 12.1 18 Este 34 Este 0 -- -- 63
2019-08-05 22:00:00 13.5 17 Este 34 Nordeste 0 -- -- 46
2019-08-05 21:00:00 13.8 17 Este 30 Este 0 -- -- 46
2019-08-05 20:00:00 15 15 Este 31 Nordeste 0 -- -- 53
2019-08-05 19:00:00 16.7 18 Este 31 Nordeste 0 -- -- 48
2019-08-05 18:00:00 18.1 15 Este 31 Este 0 -- -- 42
2019-08-05 17:00:00 17.3 19 Este 36 Nordeste 0 -- -- 44
2019-08-05 16:00:00 17.5 19 Este 37 Este 0 -- -- 44
2019-08-05 15:00:00 17.3 19 Este 42 Este 0 -- -- 45
2019-08-05 14:00:00 16.9 22 Este 41 Este 0 -- -- 45
2019-08-05 13:00:00 17.3 19 Este 40 Este 0 -- -- 43
2019-08-05 12:00:00 17.8 17 Este 36 Este 0 -- -- 37
2019-08-05 11:00:00 16.7 19 Este 32 Nordeste 0 -- -- 40
2019-08-05 10:00:00 18 12 Este 23 Este 0 -- -- 27
2019-08-05 09:00:00 16.6 11 Este 22 Este 0 -- -- 20
2019-08-05 08:00:00 12.7 9 Este 21 Nordeste 0 -- -- 30
2019-08-05 07:00:00 12.7 10 Este 22 Este 0 -- -- 29
2019-08-05 06:00:00 13.3 11 Nordeste 21 Nordeste 0 -- -- 26
2019-08-05 05:00:00 14.5 9 Este 20 Nordeste 0 -- -- 23
2019-08-05 04:00:00 14.8 7 Este 14 Este 0 -- -- 21
2019-08-05 03:00:00 15.2 8 Este 18 Nordeste 0 -- -- 20
2019-08-05 02:00:00 15.4 12 Este 22 Este 0 -- -- 16
2019-08-05 01:00:00 15.1 12 Este 25 Este 0 -- -- 18
2019-08-05 00:00:00 15.5 11 Este 22 Este 0 -- -- 18
2019-08-04 23:00:00 15.5 9 Este 16 Este 0 -- -- 16
2019-08-04 22:00:00 15.5 7 Este 16 Nordeste 0 -- -- 14
2019-08-04 21:00:00 16.1 8 Este 18 Este 0 -- -- 16
2019-08-04 20:00:00 18.8 10 Este 19 Este 0 -- -- 13
2019-08-04 19:00:00 20.1 7 Nordeste 14 Nordeste 0 -- -- 17
2019-08-04 18:00:00 20.5 7 Nordeste 15 Este 0 -- -- 30
2019-08-04 17:00:00 20.7 6 Nordeste 19 Nordeste 0 -- -- 49
2019-08-04 16:00:00 19.8 9 Nordeste 16 Nordeste 0 -- -- 58
2019-08-04 15:00:00 20.9 7 Este 18 Oeste 0 -- -- 52
2019-08-04 14:00:00 21.6 9 Noroeste 18 Oeste 0 -- -- 46
2019-08-04 13:00:00 21.9 8 Oeste 17 Oeste 0 -- -- 36
2019-08-04 12:00:00 20.5 5 Nordeste 13 Nordeste 0 -- -- 38
2019-08-04 11:00:00 20.1 7 Nordeste 13 Nordeste 0 -- -- 31
2019-08-04 10:00:00 20.3 5 Nordeste 12 Este 0 -- -- 21
2019-08-04 09:00:00 18.3 5 Nordeste 12 Nordeste 0 -- -- 17
2019-08-04 08:00:00 12.4 2 Nordeste 6 Nordeste 0 -- -- 26
2019-08-04 07:00:00 11.4 3 Nordeste 10 Nordeste 0 -- -- 28
2019-08-04 06:00:00 12.2 6 Nordeste 11 Nordeste 0 -- -- 27
2019-08-04 05:00:00 12.8 6 Este 13 Nordeste 0 -- -- 26
2019-08-04 04:00:00 13 8 Este 15 Este 0 -- -- 31
2019-08-04 03:00:00 13.2 8 Este 15 Este 0 -- -- 28
2019-08-04 02:00:00 13.1 8 Este 16 Nordeste 0 -- -- 34
2019-08-04 01:00:00 13.6 10 Nordeste 18 Nordeste 0 -- -- 34
2019-08-04 00:00:00 13.6 11 Nordeste 24 Nordeste 0 -- -- 35
2019-08-03 23:00:00 13.7 12 Nordeste 19 Este 0 -- -- 35
2019-08-03 22:00:00 14 10 Este 20 Nordeste 0 -- -- 39
2019-08-03 21:00:00 14.7 8 Nordeste 18 Nordeste 0 -- -- 38
2019-08-03 20:00:00 19.1 5 Nordeste 11 Nordeste 0 -- -- 30
2019-08-03 19:00:00 22.1 9 Norte 14 Norte 0 -- -- 38
2019-08-03 18:00:00 22.6 9 Noroeste 18 Oeste 0 -- -- 42
2019-08-03 17:00:00 22.2 11 Oeste 22 Oeste 0 -- -- 44
2019-08-03 16:00:00 22.4 10 Oeste 19 Oeste 0 -- -- 46
2019-08-03 15:00:00 22.4 10 Oeste 20 Oeste 0 -- -- 46
2019-08-03 14:00:00 22.7 6 Nordeste 17 Este 0 -- -- 37
2019-08-03 13:00:00 22.2 6 Nordeste 18 Nordeste 0 -- -- 29
2019-08-03 12:00:00 21.4 8 Este 24 Nordeste 0 -- -- 31
2019-08-03 11:00:00 19.6 13 Este 25 Este 0 -- -- 36
2019-08-03 10:00:00 19 12 Este 22 Este 0 -- -- 38
2019-08-03 09:00:00 17.9 12 Este 21 Este 0 -- -- 38
2019-08-03 08:00:00 15.3 9 Este 19 Este 0 -- -- 42
2019-08-03 07:00:00 15 9 Este 20 Este 0 -- -- 41
2019-08-03 06:00:00 14.6 12 Nordeste 21 Este 0 -- -- 35
2019-08-03 05:00:00 13.8 9 Este 16 Nordeste 0 -- -- 26
2019-08-03 04:00:00 13.8 9 Este 15 Nordeste 0 -- -- 29
2019-08-03 03:00:00 13.7 8 Este 17 Este 0 -- -- 32
2019-08-03 02:00:00 14.2 9 Este 19 Este 0 -- -- 32
2019-08-03 01:00:00 14 8 Este 18 Nordeste 0 -- -- 32
2019-08-03 00:00:00 14.8 9 Este 19 Nordeste 0 -- -- 32
2019-08-02 23:00:00 15 11 Este 21 Este 0 -- -- 33
2019-08-02 22:00:00 15.8 12 Este 22 Nordeste 0 -- -- 29
2019-08-02 21:00:00 16.2 13 Nordeste 21 Este 0 -- -- 27
2019-08-02 20:00:00 19.1 12 Nordeste 20 Nordeste 0 -- -- 23
2019-08-02 19:00:00 20.3 10 Este 18 Este 0 -- -- 23
2019-08-02 18:00:00 21.3 8 Nordeste 15 Nordeste 0 -- -- 29
2019-08-02 17:00:00 22.2 8 Este 17 Este 0 -- -- 26
2019-08-02 16:00:00 24.3 6 Nordeste 16 Nordeste 0 -- -- 31
2019-08-02 15:00:00 22.4 9 Este 15 Este 0 -- -- 31
2019-08-02 14:00:00 22.9 6 Este 14 Este 0 -- -- 30
2019-08-02 13:00:00 22.3 7 Este 15 Este 0 -- -- 30
2019-08-02 12:00:00 22.6 7 Este 14 Este 0 -- -- 21
2019-08-02 11:00:00 22.2 5 Este 13 Este 0 -- -- 22
2019-08-02 10:00:00 21.5 6 Este 14 Nordeste 0 -- -- 19
2019-08-02 09:00:00 19.9 6 Este 13 Este 0 -- -- 14
2019-08-02 08:00:00 15.7 6 Este 12 Este 0 -- -- 14
2019-08-02 07:00:00 14.6 9 Este 15 Nordeste 0 -- -- 16
2019-08-02 06:00:00 13.2 8 Este 14 Nordeste 0 -- -- 17
2019-08-02 05:00:00 14.2 8 Nordeste 14 Este 0 -- -- 15
2019-08-02 04:00:00 14.3 8 Este 12 Nordeste 0 -- -- 15
2019-08-02 03:00:00 14.5 8 Nordeste 12 Nordeste 0 -- -- 15
2019-08-02 02:00:00 14.2 7 Este 15 Nordeste 0 -- -- 13
2019-08-02 01:00:00 15.3 6 Este 14 Nordeste 0 -- -- 13
2019-08-02 00:00:00 15.9 9 Este 16 Este 0 -- -- 13
2019-08-01 23:00:00 16 8 Este 18 Este 0 -- -- 13
2019-08-01 22:00:00 -- 11 Nordeste 18 Nordeste 0 -- -- --
2019-08-01 21:00:00 15.9 9 Este 18 Este 0 -- -- 15
2019-08-01 20:00:00 18.7 7 Nordeste 14 Nordeste 0 -- -- 16
2019-08-01 19:00:00 20.9 6 Nordeste 15 Nordeste 0 -- -- 27
2019-08-01 18:00:00 23.1 8 Nordeste 14 Nordeste 0 -- -- 27
2019-08-01 17:00:00 23 6 Noroeste 16 Norte 0 -- -- 42
2019-08-01 16:00:00 23.5 6 Norte 16 Norte 0 -- -- 30
2019-08-01 15:00:00 23.5 6 Norte 16 Nordeste 0 -- -- 22
2019-08-01 14:00:00 22.9 6 Nordeste 17 Este 0 -- -- 17
2019-08-01 13:00:00 21.5 7 Este 18 Este 0 -- -- 18
2019-08-01 12:00:00 21.1 8 Este 21 Nordeste 0 -- -- 24
2019-08-01 11:00:00 20.4 12 Este 24 Este 0 -- -- 20
2019-08-01 10:00:00 19.3 12 Este 22 Este 0 -- -- 14
2019-08-01 09:00:00 18 10 Este 23 Nordeste 0 -- -- 15
2019-08-01 08:00:00 15.7 12 Este 28 Este 0 -- -- 17
2019-08-01 07:00:00 14.7 10 Este 20 Este 0 -- -- 19
2019-08-01 06:00:00 14 8 Este 22 Este 0 -- -- 21
2019-08-01 05:00:00 13.8 10 Este 24 Este 0 -- -- 21
2019-08-01 04:00:00 14 13 Este 23 Este 0 -- -- 21
2019-08-01 03:00:00 13.5 10 Este 26 Este 0 -- -- 21
2019-08-01 02:00:00 14 11 Este 25 Este 0 -- -- 17
2019-08-01 01:00:00 14.1 15 Este 30 Nordeste 0 -- -- 18
2019-08-01 00:00:00 13.7 15 Este 30 Este 0 -- -- 20
2019-07-31 23:00:00 14 14 Este 28 Este 0 -- -- 17
2019-07-31 22:00:00 13.9 12 Este 24 Este 0 -- -- 15
2019-07-31 21:00:00 14.1 15 Este 24 Este 0 -- -- 9
2019-07-31 20:00:00 15.9 13 Este 23 Este 0 -- -- 12
2019-07-31 19:00:00 18.1 12 Este 23 Este 0 -- -- 13
2019-07-31 18:00:00 18.8 10 Este 22 Nordeste 0 -- -- 11
2019-07-31 17:00:00 20.4 6 Nordeste 17 Nordeste 0 -- -- 20
2019-07-31 16:00:00 19.6 8 Este 19 Nordeste 0 -- -- 26
2019-07-31 15:00:00 19.1 9 Este 22 Nordeste 0 -- -- 13
2019-07-31 14:00:00 20.1 9 Nordeste 23 Este 0 -- -- 14
2019-07-31 13:00:00 19.1 10 Este 19 Nordeste 0 -- -- 14
2019-07-31 12:00:00 19.1 10 Este 26 Este 0 -- -- 17
2019-07-31 11:00:00 19.5 11 Este 27 Norte 0 -- -- 16
2019-07-31 10:00:00 19.7 10 Este 25 Nordeste 0 -- -- 11
2019-07-31 09:00:00 18.1 9 Este 22 Nordeste 0 -- -- 12
2019-07-31 08:00:00 14.6 10 Este 21 Este 0 -- -- 12
2019-07-31 07:00:00 14 12 Este 24 Este 0 -- -- 15
2019-07-31 06:00:00 13.8 14 Este 31 Nordeste 0 -- -- 21
2019-07-31 05:00:00 13.7 15 Este 33 Este 0 -- -- 24
2019-07-31 04:00:00 13.3 18 Este 37 Este 0 -- -- 33
2019-07-31 03:00:00 13.5 17 Este 34 Este 0 -- -- 29
2019-07-31 02:00:00 13.2 17 Este 37 Este 0 -- -- 30
2019-07-31 01:00:00 12.4 18 Este 35 Este 0 -- -- 27
2019-07-31 00:00:00 12 16 Este 33 Este 0 -- -- 36
2019-07-30 23:00:00 10.9 16 Este 35 Este 0 -- -- 56
2019-07-30 22:00:00 10.5 16 Este 32 Nordeste 0 -- -- 51
2019-07-30 21:00:00 8.7 15 Este 28 Este 0 -- -- 93
2019-07-30 20:00:00 12.2 13 Este 28 Este 0 -- -- 45
2019-07-30 19:00:00 16.7 6 Nordeste 20 Noroeste 0 -- -- 50
2019-07-30 18:00:00 19.8 7 Norte 26 Noroeste 0 -- -- 44
2019-07-30 17:00:00 19 9 Noroeste 23 Norte 0 -- -- 44
2019-07-30 16:00:00 19.4 8 Noroeste 23 Noroeste 0 -- -- 45
2019-07-30 15:00:00 19.3 6 Este 18 Este 0 -- -- 47
2019-07-30 14:00:00 18 8 Este 26 Nordeste 0 -- -- 61
2019-07-30 13:00:00 15.9 12 Este 25 Nordeste 0 -- -- 60
2019-07-30 12:00:00 12.9 13 Este 35 Este 0 -- -- 91
2019-07-30 11:00:00 11.5 16 Este 36 Nordeste 0 -- -- 96
2019-07-30 10:00:00 10.7 15 Este 38 Este 0 -- -- 96
2019-07-30 09:00:00 9.7 19 Este 39 Este 0 -- -- 98
2019-07-30 08:00:00 10.4 18 Este 37 Este 0.2 -- -- 98
2019-07-30 07:00:00 10.4 17 Este 37 Este 0 -- -- 98
2019-07-30 06:00:00 10.5 17 Este 37 Este 0 -- -- 98
2019-07-30 05:00:00 9.6 18 Este 36 Este 0 -- -- 97
2019-07-30 04:00:00 10 18 Este 39 Este 0 -- -- 91
2019-07-30 03:00:00 10.3 18 Este 48 Este 0 -- -- 81
2019-07-30 02:00:00 10.1 22 Este 38 Este 0 -- -- 95
2019-07-30 01:00:00 10.1 18 Este 41 Este 0 -- -- 97
2019-07-30 00:00:00 10.8 20 Este 42 Este 0 -- -- 95
2019-07-29 23:00:00 10.7 19 Este 43 Este 0 -- -- 89
2019-07-29 22:00:00 12.4 19 Este 39 Este 0 -- -- 48
2019-07-29 21:00:00 14.8 16 Este 32 Este 0 -- -- 15
2019-07-29 20:00:00 15.7 19 Este 35 Este 0 -- -- 18
2019-07-29 19:00:00 16.6 16 Este 31 Este 0 -- -- 19
2019-07-29 18:00:00 18.6 10 Este 27 Este 0 -- -- 19
2019-07-29 17:00:00 19.6 14 Este 27 Este 0 -- -- 19
2019-07-29 16:00:00 20.2 12 Nordeste 22 Nordeste 0 -- -- 23
2019-07-29 15:00:00 19.2 15 Este 28 Este 0 -- -- 27
2019-07-29 14:00:00 18.7 16 Este 32 Este 0 -- -- 25
2019-07-29 13:00:00 19.8 14 Este 32 Este 0 -- -- 19
2019-07-29 12:00:00 19.8 14 Este 28 Sudeste 0 -- -- 18
2019-07-29 11:00:00 19.8 12 Este 30 Este 0 -- -- 13
2019-07-29 10:00:00 18.9 16 Este 28 Este 0 -- -- 9
2019-07-29 09:00:00 18 16 Este 29 Este 0 -- -- 11
2019-07-29 08:00:00 16.2 14 Este 25 Este 0 -- -- 12
2019-07-29 07:00:00 16.5 9 Este 19 Este 0 -- -- 31
2019-07-29 06:00:00 16.5 9 Este 19 Nordeste 0 -- -- 40
2019-07-29 05:00:00 15.9 8 Este 16 Este 0 -- -- 41
2019-07-29 04:00:00 16.2 7 Este 18 Este 0 -- -- 51
2019-07-29 03:00:00 16.6 5 Sudeste 18 Este 0 -- -- 48
2019-07-29 02:00:00 17.2 10 Este 27 Este 0 -- -- 45
2019-07-29 01:00:00 16.8 12 Este 31 Nordeste 0 -- -- 48
2019-07-29 00:00:00 17.2 12 Este 28 Sudeste 0 -- -- 41
2019-07-28 23:00:00 17.3 10 Este 25 Sudeste 0 -- -- 35
2019-07-28 22:00:00 17.6 12 Este 24 Este 0 -- -- 32
2019-07-28 21:00:00 17.2 11 Este 25 Este 0 -- -- 28
2019-07-28 20:00:00 19.1 12 Este 24 Este 0 -- -- 33
2019-07-28 19:00:00 22 8 Sudeste 22 Noroeste 0 -- -- 39
2019-07-28 18:00:00 23.5 5 Este 16 Nordeste 0 -- -- 37
2019-07-28 17:00:00 23.1 9 Nordeste 22 Este 0 -- -- 44
2019-07-28 16:00:00 23.5 9 Este 21 Nordeste 0 -- -- 42
2019-07-28 15:00:00 23.1 8 Nordeste 17 Este 0 -- -- 44
2019-07-28 14:00:00 22.5 9 Este 19 Este 0 -- -- 44
2019-07-28 13:00:00 22.5 10 Este 26 Este 0 -- -- 44
2019-07-28 12:00:00 21.2 13 Este 25 Este 0 -- -- 49
2019-07-28 11:00:00 20.2 16 Este 27 Este 0 -- -- 51
2019-07-28 10:00:00 19 16 Este 27 Nordeste 0 -- -- 55
2019-07-28 09:00:00 18.1 14 Este 26 Nordeste 0 -- -- 53
2019-07-28 08:00:00 16.4 16 Este 27 Este 0 -- -- 54
2019-07-28 07:00:00 16.1 11 Este 31 Sudeste 0 -- -- 56
2019-07-28 06:00:00 16.3 11 Este 26 Nordeste 0 -- -- 57
2019-07-28 05:00:00 16.4 12 Este 23 Nordeste 0 -- -- 54
2019-07-28 04:00:00 15.6 12 Este 24 Nordeste 0 -- -- 57
2019-07-28 03:00:00 16.3 12 Nordeste 25 Nordeste 0 -- -- 41
2019-07-28 02:00:00 17.6 12 Nordeste 21 Este 0 -- -- 5
2019-07-28 01:00:00 17.2 8 Este 15 Nordeste 0 -- -- 3
2019-07-28 00:00:00 18.9 6 Nordeste 16 Nordeste 0 -- -- 4
2019-07-27 23:00:00 17.9 5 Nordeste 13 Nordeste 0 -- -- 8
2019-07-27 22:00:00 19.6 3 Nordeste 12 Nordeste 0 -- -- 12
2019-07-26 11:00:00 -- -- -- -- -- -- -- -- --
2019-07-26 10:00:00 -- -- -- -- -- -- -- -- --
2019-07-26 09:00:00 26.4 8 Sudeste 21 Sudeste 0 -- -- 11
2019-07-26 08:00:00 24.1 8 Sudeste 19 Nordeste 0 -- -- 13
2019-07-26 07:00:00 22.8 5 Este 13 Este 0 -- -- 8
2019-07-26 06:00:00 20.3 9 Nordeste 18 Nordeste 0 -- -- 6
2019-07-26 05:00:00 20.6 2 Este 4 Nordeste 0 -- -- 12
2019-07-26 04:00:00 20.2 3 Este 17 Nordeste 0 -- -- 12
2019-07-26 03:00:00 18.7 10 Nordeste 18 Este 0 -- -- 9
2019-07-26 02:00:00 19.2 4 Este 18 Nordeste 0 -- -- 17
2019-07-26 01:00:00 17 12 Nordeste 18 Nordeste 0 -- -- 12
2019-07-26 00:00:00 21.6 2 Sur 7 Sudoeste 0 -- -- 25
2019-07-25 23:00:00 21.5 0 Calma 5 Sudeste 0 -- -- 24
2019-07-25 22:00:00 20.3 4 Nordeste 9 Este 0 -- -- 17
2019-07-25 21:00:00 24.3 4 Sudoeste 14 Oeste 0 -- -- 26
2019-07-25 20:00:00 27.7 4 Sudoeste 13 Oeste 0 -- -- 28
2019-07-25 19:00:00 28.3 8 Oeste 19 Oeste 0 -- -- 33
2019-07-25 18:00:00 29.7 10 Sudoeste 23 Sudeste 0 -- -- 25
2019-07-25 17:00:00 30.1 12 Sudeste 30 Sudoeste 0 -- -- 20
2019-07-25 16:00:00 29.6 14 Sudeste 30 Sudeste 0 -- -- 19
2019-07-25 15:00:00 29.8 12 Sudeste 25 Sudeste 0 -- -- 9
2019-07-25 14:00:00 28.1 8 Este 19 Este 0 -- -- 17
2019-07-25 13:00:00 28.2 10 Noroeste 18 Nordeste 0 -- -- 15
2019-07-25 12:00:00 27.7 4 Nordeste 21 Este 0 -- -- 16
2019-07-25 11:00:00 24.3 9 Este 19 Nordeste 0 -- -- 25
2019-07-25 10:00:00 27.7 4 Noroeste 14 Este 0 -- -- 17
2019-07-25 09:00:00 22.5 9 Nordeste 17 Este 0 -- -- 6
2019-07-25 08:00:00 18.3 10 Nordeste 22 Este 0 -- -- 7
2019-07-25 07:00:00 19 2 Sudeste 12 Este 0 -- -- 8
2019-07-25 06:00:00 18.7 8 Nordeste 17 Este 0 -- -- 6
2019-07-25 05:00:00 18 8 Este 18 Nordeste 0 -- -- 8
2019-07-25 04:00:00 17.5 11 Nordeste 23 Este 0 -- -- 10
2019-07-25 03:00:00 17 12 Nordeste 20 Nordeste 0 -- -- 17
2019-07-25 02:00:00 18 9 Nordeste 17 Nordeste 0 -- -- 12
2019-07-25 01:00:00 19 8 Nordeste 15 Nordeste 0 -- -- 11
2019-07-25 00:00:00 19.1 6 Nordeste 14 Nordeste 0 -- -- 20
2019-07-24 23:00:00 20.3 8 Nordeste 14 Este 0 -- -- 24
2019-07-24 22:00:00 19.8 2 Este 6 Este 0 -- -- 10
2019-07-24 21:00:00 20.8 2 Este 9 Oeste 0 -- -- 16
2019-07-24 20:00:00 25.9 3 Oeste 15 Oeste 0 -- -- 30
2019-07-24 19:00:00 26.5 7 Noroeste 15 Noroeste 0 -- -- 33
2019-07-24 18:00:00 27.5 4 Norte 14 Nordeste 0 -- -- 23
2019-07-24 17:00:00 26.6 6 Nordeste 13 Nordeste 0 -- -- 28
2019-07-24 16:00:00 27.1 5 Norte 19 Nordeste 0 -- -- 30
2019-07-24 15:00:00 22.9 13 Nordeste 24 Nordeste 0 -- -- 34
2019-07-24 14:00:00 23 12 Nordeste 25 Nordeste 0 -- -- 33
2019-07-24 13:00:00 22.8 13 Nordeste 23 Este 0 -- -- 31
2019-07-24 12:00:00 22.1 12 Nordeste 24 Nordeste 0 -- -- 31
2019-07-24 11:00:00 22.7 11 Nordeste 20 Este 0 -- -- 19
2019-07-24 10:00:00 23.4 9 Nordeste 19 Este 0 -- -- 13
2019-07-24 09:00:00 21.5 9 Nordeste 18 Nordeste 0 -- -- 8
2019-07-24 08:00:00 17.3 8 Este 15 Este 0 -- -- 9
2019-07-24 07:00:00 15.8 9 Este 16 Nordeste 0 -- -- 9
2019-07-24 06:00:00 16.5 8 Este 20 Este 0 -- -- 8
2019-07-24 05:00:00 16.4 9 Este 18 Nordeste 0 -- -- 9
2019-07-24 04:00:00 16.9 10 Este 23 Nordeste 0 -- -- 8
2019-07-24 03:00:00 16.1 10 Este 22 Este 0 -- -- 11
2019-07-24 02:00:00 17.6 12 Este 22 Nordeste 0 -- -- 7
2019-07-24 01:00:00 18 12 Este 21 Este 0 -- -- 6
2019-07-24 00:00:00 18.2 13 Este 25 Este 0 -- -- 6
2019-07-23 23:00:00 17.1 10 Este 18 Este 0 -- -- 11
2019-07-23 22:00:00 18.3 10 Este 22 Nordeste 0 -- -- 6
2019-07-23 21:00:00 19.3 12 Este 23 Este 0 -- -- 6
2019-07-23 20:00:00 21.3 12 Este 24 Nordeste 0 -- -- 7
2019-07-23 19:00:00 22.6 12 Este 27 Nordeste 0 -- -- 9
2019-07-23 18:00:00 22.2 14 Este 28 Nordeste 0 -- -- 12
2019-07-23 17:00:00 22 15 Este 31 Este 0 -- -- 14
2019-07-23 16:00:00 22.6 14 Este 32 Este 0 -- -- 15
2019-07-23 15:00:00 22.5 12 Este 29 Este 0 -- -- 13
2019-07-23 14:00:00 22.8 14 Este 26 Nordeste 0 -- -- 11
2019-07-23 13:00:00 22.3 15 Este 31 Este 0 -- -- 8
2019-07-23 12:00:00 22.2 14 Nordeste 27 Este 0 -- -- 10
2019-07-23 11:00:00 21.7 12 Este 25 Este 0 -- -- 14
2019-07-23 10:00:00 20.9 13 Este 26 Este 0 -- -- 12
2019-07-23 09:00:00 19.7 15 Este 27 Este 0 -- -- 10
2019-07-23 08:00:00 17.7 11 Este 21 Este 0 -- -- 12
2019-07-23 07:00:00 17.4 12 Nordeste 20 Nordeste 0 -- -- 12
2019-07-23 06:00:00 17.4 10 Nordeste 18 Nordeste 0 -- -- 11
2019-07-23 05:00:00 17.7 11 Nordeste 16 Nordeste 0 -- -- 10
2019-07-23 04:00:00 15.8 5 Nordeste 11 Nordeste 0 -- -- 12
2019-07-23 03:00:00 16.6 3 Nordeste 6 Este 0 -- -- 11
2019-07-23 02:00:00 17.5 4 Este 8 Este 0 -- -- 10
2019-07-23 01:00:00 16.2 5 Nordeste 10 Nordeste 0 -- -- 10
2019-07-23 00:00:00 17 5 Este 10 Este 0 -- -- 10
2019-07-22 23:00:00 17 8 Nordeste 12 Nordeste 0 -- -- 12
2019-07-22 22:00:00 18.1 6 Este 12 Este 0 -- -- 11
2019-07-22 21:00:00 20 5 Nordeste 10 Nordeste 0 -- -- 15
2019-07-22 20:00:00 25.6 4 Norte 15 Oeste 0 -- -- 15
2019-07-22 19:00:00 25.6 9 Oeste 17 Oeste 0 -- -- 31
2019-07-22 18:00:00 26.1 11 Oeste 21 Noroeste 0 -- -- 27
2019-07-22 17:00:00 26.1 13 Oeste 21 Oeste 0 -- -- 26
2019-07-22 16:00:00 26.6 9 Oeste 18 Noroeste 0 -- -- 29
2019-07-22 15:00:00 26.2 10 Oeste 18 Noroeste 0 -- -- 30
2019-07-22 14:00:00 25.9 9 Norte -- -- -- -- -- 27
2019-07-22 13:00:00 -- -- -- -- -- -- -- -- --
2019-07-22 12:00:00 -- -- -- -- -- -- -- -- --
2019-07-22 11:00:00 24.5 7 Nordeste 16 Nordeste 0 -- -- 19
2019-07-22 10:00:00 22.6 10 Nordeste 15 Nordeste 0 -- -- 20
2019-07-22 09:00:00 21 9 Nordeste 15 Nordeste 0 -- -- 19
2019-07-22 08:00:00 18.1 6 Este 10 Nordeste 0 -- -- 11
2019-07-22 07:00:00 17.3 6 Nordeste 12 Este 0 -- -- 12
2019-07-22 06:00:00 17.3 5 Nordeste 10 Nordeste 0 -- -- 13
2019-07-22 05:00:00 17.9 5 Nordeste 12 Nordeste 0 -- -- 13
2019-07-22 04:00:00 17.1 6 Nordeste 14 Nordeste 0 -- -- 13
2019-07-22 03:00:00 17.3 6 Este 14 Este 0 -- -- 17
2019-07-22 02:00:00 17.6 6 Este 16 Nordeste 0 -- -- 20
2019-07-22 01:00:00 17.5 7 Este 18 Este 0 -- -- 20
2019-07-22 00:00:00 18 10 Este 19 Este 0 -- -- 13
2019-07-21 23:00:00 18.6 9 Este 19 Este 0 -- -- 14
2019-07-21 22:00:00 19 7 Este 13 Nordeste 0 -- -- 14
2019-07-21 21:00:00 19.8 6 Este 11 Nordeste 0 -- -- 13
2019-07-21 20:00:00 26.1 3 Norte 12 Oeste 0 -- -- 29
2019-07-21 19:00:00 25.8 4 Nordeste 12 Norte 0 -- -- 32
2019-07-21 18:00:00 27 4 Norte 17 Oeste 0 -- -- 31
2019-07-21 17:00:00 25.9 8 Oeste 18 Oeste 0 -- -- 35
2019-07-21 16:00:00 25.5 8 Oeste 20 Oeste 0 -- -- 36
2019-07-21 15:00:00 25.4 10 Oeste 21 Oeste 0 -- -- 34
2019-07-21 14:00:00 26.1 9 Oeste 17 Oeste 0 -- -- 31
2019-07-21 13:00:00 25.4 10 Oeste 17 Oeste 0 -- -- 31
2019-07-21 12:00:00 26.3 5 Noroeste 13 Sudoeste 0 -- -- 22
2019-07-21 11:00:00 26 5 Nordeste 13 Nordeste 0 -- -- 11
2019-07-21 10:00:00 26.1 4 Este 10 Este 0 -- -- 11
2019-07-21 09:00:00 23.1 4 Este 9 Nordeste 0 -- -- 7
2019-07-21 08:00:00 18.1 5 Este 9 Este 0 -- -- 7
2019-07-21 07:00:00 16.3 4 Nordeste 8 Nordeste 0 -- -- 7
2019-07-21 06:00:00 16.6 4 Nordeste 9 Nordeste 0 -- -- 9
2019-07-21 05:00:00 14.9 4 Este 12 Este 0 -- -- 32
2019-07-21 04:00:00 15.6 5 Este 10 Nordeste 0 -- -- 18
2019-07-21 03:00:00 15.7 2 Este 11 Nordeste 0 -- -- 17
2019-07-21 02:00:00 17.7 8 Nordeste 13 Nordeste 0 -- -- 7
2019-07-21 01:00:00 17.6 8 Nordeste 14 Nordeste 0 -- -- 5
2019-07-21 00:00:00 17.5 10 Nordeste 15 Este 0 -- -- 11
2019-07-20 23:00:00 16.1 9 Este 18 Nordeste 0 -- -- 21
2019-07-20 22:00:00 17.4 10 Este 16 Nordeste 0 -- -- 31
2019-07-20 21:00:00 19.2 5 Este 13 Nordeste 0 -- -- 11
2019-07-20 20:00:00 21 7 Este 14 Este 0 -- -- 29
2019-07-20 19:00:00 25.3 5 Norte 13 Norte 0 -- -- 24
2019-07-20 18:00:00 25.3 8 Noroeste 19 Oeste 0 -- -- 42
2019-07-20 17:00:00 25.1 7 Norte 15 Norte 0 -- -- 39
2019-07-20 16:00:00 25.1 6 Norte 15 Noroeste 0 -- -- 41
2019-07-20 15:00:00 23.7 7 Noroeste 15 Norte 0 -- -- 41
2019-07-20 14:00:00 24.1 4 Nordeste 16 Nordeste 0 -- -- 26
2019-07-20 13:00:00 22.4 8 Nordeste 19 Este 0 -- -- 31
2019-07-20 12:00:00 21.2 9 Nordeste 21 Este 0 -- -- 33
2019-07-20 11:00:00 19.4 15 Nordeste 23 Nordeste 0 -- -- 25
2019-07-20 10:00:00 19.4 13 Este 23 Nordeste 0 -- -- 24
2019-07-20 09:00:00 17.1 10 Este 23 Nordeste 0 -- -- 41
2019-07-20 08:00:00 14.9 10 Este 21 Este 0 -- -- 31
2019-07-20 07:00:00 15.4 12 Este 22 Este 0 -- -- 12
2019-07-20 06:00:00 12.5 14 Este 24 Este 0 -- -- 58
2019-07-20 05:00:00 12.8 14 Este 29 Este 0 -- -- 60
2019-07-20 04:00:00 12.9 15 Este 31 Este 0 -- -- 63
2019-07-20 03:00:00 12.8 14 Este 32 Este 0 -- -- 64
2019-07-20 02:00:00 13.4 17 Este 31 Este 0 -- -- 61
2019-07-20 01:00:00 13.4 16 Este 37 Nordeste 0 -- -- 60
2019-07-20 00:00:00 13.5 17 Este 39 Este 0 -- -- 54
2019-07-19 23:00:00 12.4 18 Este 37 Este 0 -- -- 64
2019-07-19 22:00:00 13.5 16 Este 35 Este 0 -- -- 61
2019-07-19 21:00:00 13.9 16 Este 34 Este 0 -- -- 64
2019-07-19 20:00:00 16.3 13 Este 36 Este 0 -- -- 48
2019-07-19 19:00:00 17.6 15 Este 31 Este 0 -- -- 30
2019-07-19 18:00:00 18.7 16 Este 29 Este 0 -- -- 25
2019-07-19 17:00:00 19.9 9 Este 26 Este 0 -- -- 26
2019-07-19 16:00:00 19.8 12 Este 22 Sudeste 0 -- -- 28
2019-07-19 15:00:00 20.1 11 Este 27 Este 0 -- -- 23
2019-07-19 14:00:00 19.2 15 Este 27 Este 0 -- -- 27
2019-07-19 13:00:00 18.6 15 Este 29 Este 0 -- -- 22
2019-07-19 12:00:00 18.5 14 Este 31 Nordeste 0 -- -- 18
2019-07-19 11:00:00 18.4 14 Este 31 Este 0 -- -- 16
2019-07-19 10:00:00 17.6 14 Este 33 Nordeste 0 -- -- 15
2019-07-19 09:00:00 17.1 14 Este 33 Este 0 -- -- 14
2019-07-19 08:00:00 15 17 Este 39 Nordeste 0 -- -- 16
2019-07-19 07:00:00 14.9 17 Este 33 Este 0 -- -- 12
2019-07-19 06:00:00 14.1 15 Este 30 Este 0 -- -- 21
2019-07-19 05:00:00 14.6 16 Este 35 Este 0 -- -- 15
2019-07-19 04:00:00 14.5 15 Este 35 Este 0 -- -- 16
2019-07-19 03:00:00 14.5 17 Este 34 Este 0 -- -- 12
2019-07-19 02:00:00 15.1 16 Este 31 Nordeste 0 -- -- 10
2019-07-19 01:00:00 15.3 14 Este 30 Este 0 -- -- 12
2019-07-19 00:00:00 15.2 14 Este 30 Este 0 -- -- 14
2019-07-18 23:00:00 14.6 15 Este 28 Este 0 -- -- 14
2019-07-18 22:00:00 15.3 12 Este 25 Nordeste 0 -- -- 10
2019-07-18 21:00:00 15.8 9 Este 20 Nordeste 0 -- -- 6
2019-07-18 20:00:00 18.9 5 Este 22 Nordeste 0 -- -- 18
2019-07-18 19:00:00 21.9 6 Noroeste 19 Nordeste 0 -- -- 22
2019-07-18 18:00:00 23.5 6 Norte 24 Norte 0 -- -- 15
2019-07-18 17:00:00 23.7 8 Norte 26 Noroeste 0 -- -- 11
2019-07-18 16:00:00 23.6 11 Norte 23 Noroeste 0 -- -- 14
2019-07-18 15:00:00 23.6 10 Noroeste 22 Norte 0 -- -- 15
2019-07-18 14:00:00 24.8 6 Norte 20 Norte 0 -- -- 12
2019-07-18 13:00:00 23.1 10 Este 26 Este 0 -- -- 14
2019-07-18 12:00:00 22 14 Este 26 Este 0 -- -- 10
2019-07-18 11:00:00 23 10 Este 21 Nordeste 0 -- -- 8
2019-07-18 10:00:00 22.7 7 Este 18 Nordeste 0 -- -- 6
2019-07-18 09:00:00 20.9 7 Este 14 Este 0 -- -- 8
2019-07-18 08:00:00 17.9 4 Este 12 Noroeste 0 -- -- 5
2019-07-18 07:00:00 17.6 4 Nordeste 14 Norte 0 -- -- 12
2019-07-18 06:00:00 18.3 8 Nordeste 18 Nordeste 0 -- -- 14
2019-07-18 05:00:00 18.6 6 Nordeste 19 Nordeste 0 -- -- 11
2019-07-18 04:00:00 18.9 4 Norte 20 Norte 0 -- -- 9
2019-07-18 03:00:00 19.3 3 Noroeste 12 Oeste 0 -- -- 9
2019-07-18 02:00:00 19.5 4 Norte 13 Noroeste 0 -- -- 12
2019-07-18 01:00:00 19.1 3 Este 18 Nordeste 0 -- -- 10
2019-07-18 00:00:00 20.4 5 Nordeste 19 Nordeste 0 -- -- 10